createdAt,value
2022-12-09T00:01:34.813Z,53.72
2022-12-09T00:03:36.598Z,54.23
2022-12-09T00:05:39.574Z,53.83
2022-12-09T00:07:42.512Z,54.54
2022-12-09T00:09:44.557Z,53.73
2022-12-09T00:11:46.287Z,54.83
2022-12-09T00:13:48.807Z,54.97
2022-12-09T00:15:50.337Z,54.70
2022-12-09T00:17:52.327Z,55.20
2022-12-09T00:19:53.797Z,55.30
2022-12-09T00:21:55.334Z,55.18
2022-12-09T00:24:03.853Z,55.33
2022-12-09T00:26:05.527Z,55.18
2022-12-09T00:28:07.036Z,55.42
2022-12-09T00:30:09.516Z,54.29
2022-12-09T00:32:11.501Z,54.11
2022-12-09T00:34:13.435Z,54.45
2022-12-09T00:36:17.074Z,54.18
2022-12-09T00:38:18.575Z,54.13
2022-12-09T00:40:21.757Z,54.46
2022-12-09T00:42:23.292Z,54.58
2022-12-09T00:44:25.012Z,55.00
2022-12-09T00:46:26.834Z,54.71
2022-12-09T00:48:28.882Z,54.78
2022-12-09T00:50:30.510Z,54.71
2022-12-09T00:52:32.189Z,54.98
2022-12-09T00:54:33.976Z,55.01
2022-12-09T00:56:36.845Z,55.25
2022-12-09T00:58:38.723Z,55.36
2022-12-09T01:00:40.975Z,55.63
2022-12-09T01:02:42.853Z,55.61
2022-12-09T01:04:44.636Z,55.87
2022-12-09T01:06:46.196Z,55.83
2022-12-09T01:08:47.767Z,55.77
2022-12-09T01:10:49.622Z,55.89
2022-12-09T01:12:52.478Z,56.02
2022-12-09T01:14:54.123Z,55.73
2022-12-09T01:16:55.913Z,56.09
2022-12-09T01:18:59.423Z,55.86
2022-12-09T01:21:01.021Z,55.87
2022-12-09T01:23:03.482Z,55.99
2022-12-09T01:25:05.916Z,56.08
2022-12-09T01:27:07.668Z,56.15
2022-12-09T01:29:10.522Z,55.75
2022-12-09T01:31:14.693Z,55.33
2022-12-09T01:33:16.332Z,55.93
2022-12-09T01:35:18.279Z,55.94
2022-12-09T01:37:19.839Z,56.28
2022-12-09T01:39:21.304Z,55.77
2022-12-09T01:41:23.375Z,56.27
2022-12-09T01:43:25.061Z,55.98
2022-12-09T01:45:48.713Z,55.37
2022-12-09T01:47:54.438Z,55.81
2022-12-09T01:49:56.140Z,56.10
2022-12-09T01:52:03.453Z,55.88
2022-12-09T01:54:05.647Z,56.06
2022-12-09T01:56:11.023Z,56.29
2022-12-09T01:58:13.602Z,56.43
2022-12-09T02:00:15.710Z,55.62
2022-12-09T02:02:20.294Z,55.74
2022-12-09T02:04:22.139Z,56.07
2022-12-09T02:06:23.908Z,55.97
2022-12-09T02:08:25.658Z,55.75
2022-12-09T02:10:28.079Z,55.77
2022-12-09T02:12:37.805Z,55.73
2022-12-09T02:14:42.834Z,55.75
2022-12-09T02:16:53.383Z,56.11
2022-12-09T02:19:05.261Z,55.73
2022-12-09T02:21:11.817Z,55.50
2022-12-09T02:23:21.914Z,55.32
2022-12-09T02:25:30.335Z,54.90
2022-12-09T02:27:37.238Z,55.13
2022-12-09T02:29:59.061Z,55.15
2022-12-09T02:32:36.020Z,55.26
2022-12-09T02:34:43.826Z,55.43
2022-12-09T02:36:56.653Z,55.36
2022-12-09T02:39:00.321Z,55.46
2022-12-09T02:41:06.994Z,55.62
2022-12-09T02:43:10.989Z,55.89
2022-12-09T02:45:14.810Z,56.20
2022-12-09T02:47:19.915Z,56.40
2022-12-09T02:49:25.038Z,56.48
2022-12-09T02:51:32.482Z,56.77
2022-12-09T02:53:35.895Z,56.50
2022-12-09T02:55:39.325Z,56.28
2022-12-09T02:57:41.177Z,56.38
2022-12-09T02:59:42.675Z,55.75
2022-12-09T03:01:51.180Z,55.72
2022-12-09T03:03:54.488Z,55.66
2022-12-09T03:06:01.584Z,55.69
2022-12-09T03:08:14.588Z,55.75
2022-12-09T03:10:23.596Z,55.66
2022-12-09T03:12:32.724Z,55.70
2022-12-09T03:14:40.291Z,56.05
2022-12-09T03:16:47.178Z,55.79
2022-12-09T03:18:54.952Z,56.17
2022-12-09T03:20:57.335Z,56.02
2022-12-09T03:23:00.355Z,56.24
2022-12-09T03:25:08.883Z,56.33
2022-12-09T03:27:15.749Z,55.60
2022-12-09T03:29:21.303Z,55.71
2022-12-09T03:31:27.136Z,55.60
2022-12-09T03:33:30.718Z,55.46
2022-12-09T03:35:37.614Z,55.40
2022-12-09T03:37:42.096Z,55.29
2022-12-09T03:39:45.147Z,55.31
2022-12-09T03:41:52.400Z,55.00
2022-12-09T03:43:57.954Z,55.42
2022-12-09T03:45:59.884Z,55.09
2022-12-09T03:48:02.387Z,55.41
2022-12-09T03:50:05.787Z,55.29
2022-12-09T03:52:13.485Z,55.18
2022-12-09T03:54:18.987Z,55.19
2022-12-09T03:56:23.149Z,55.23
2022-12-09T03:58:27.507Z,54.96
2022-12-09T04:00:30.516Z,55.19
2022-12-09T04:02:32.236Z,55.54
2022-12-09T04:04:34.864Z,55.58
2022-12-09T04:06:37.060Z,55.33
2022-12-09T04:08:38.985Z,55.48
2022-12-09T04:10:40.981Z,55.00
2022-12-09T04:12:42.855Z,54.94
2022-12-09T04:14:46.412Z,55.37
2022-12-09T04:16:48.251Z,55.06
2022-12-09T04:18:49.848Z,54.99
2022-12-09T04:20:51.365Z,55.33
2022-12-09T04:22:52.985Z,54.91
2022-12-09T04:24:54.831Z,54.84
2022-12-09T04:26:56.475Z,54.89
2022-12-09T04:28:58.034Z,55.21
2022-12-09T04:31:01.068Z,55.28
2022-12-09T04:33:02.938Z,55.26
2022-12-09T04:35:05.540Z,55.12
2022-12-09T04:37:07.434Z,55.17
2022-12-09T04:39:09.104Z,55.07
2022-12-09T04:41:11.712Z,55.25
2022-12-09T04:43:13.405Z,54.90
2022-12-09T04:45:15.331Z,55.59
2022-12-09T04:47:18.272Z,55.70
2022-12-09T04:49:19.892Z,55.82
2022-12-09T04:51:21.413Z,55.73
2022-12-09T04:53:24.235Z,55.83
2022-12-09T04:55:26.059Z,55.66
2022-12-09T04:57:27.803Z,55.46
2022-12-09T04:59:30.425Z,55.08
2022-12-09T05:01:32.527Z,55.31
2022-12-09T05:03:36.276Z,54.99
2022-12-09T05:05:40.033Z,55.20
2022-12-09T05:07:42.237Z,55.59
2022-12-09T05:09:44.011Z,56.10
2022-12-09T05:11:45.821Z,56.44
2022-12-09T05:13:47.875Z,56.31
2022-12-09T05:15:49.965Z,56.77
2022-12-09T05:17:51.917Z,56.81
2022-12-09T05:19:55.338Z,56.44
2022-12-09T05:21:57.453Z,55.91
2022-12-09T05:23:59.209Z,56.36
2022-12-09T05:26:03.618Z,56.30
2022-12-09T05:28:05.213Z,56.26
2022-12-09T05:30:08.542Z,56.41
2022-12-09T05:32:10.530Z,56.28
2022-12-09T05:34:12.319Z,56.17
2022-12-09T05:36:17.697Z,55.81
2022-12-09T05:38:19.564Z,55.99
2022-12-09T05:40:21.798Z,56.05
2022-12-09T05:42:23.316Z,55.81
2022-12-09T05:44:25.038Z,55.70
2022-12-09T05:46:26.856Z,55.84
2022-12-09T05:48:29.441Z,56.01
2022-12-09T05:50:31.180Z,55.94
2022-12-09T05:52:36.445Z,55.71
2022-12-09T05:54:38.165Z,56.08
2022-12-09T05:56:46.171Z,55.75
2022-12-09T05:58:50.420Z,56.03
2022-12-09T06:00:52.118Z,56.48
2022-12-09T06:02:54.184Z,56.01
2022-12-09T06:04:56.307Z,56.17
2022-12-09T06:06:58.169Z,56.98
2022-12-09T06:09:02.235Z,57.30
2022-12-09T06:11:04.893Z,57.63
2022-12-09T06:13:07.255Z,57.21
2022-12-09T06:15:10.738Z,57.71
2022-12-09T06:17:13.687Z,57.27
2022-12-09T06:19:15.415Z,56.80
2022-12-09T06:21:18.539Z,56.71
2022-12-09T06:23:20.816Z,57.38
2022-12-09T06:25:23.962Z,57.09
2022-12-09T06:27:25.861Z,57.24
2022-12-09T06:29:28.863Z,56.84
2022-12-09T06:31:30.497Z,56.32
2022-12-09T06:35:54.275Z,56.06
2022-12-09T06:37:55.949Z,55.74
2022-12-09T06:39:57.687Z,55.29
2022-12-09T06:42:00.625Z,55.04
2022-12-09T06:44:02.750Z,54.96
2022-12-09T06:46:11.985Z,55.11
2022-12-09T06:48:13.913Z,54.86
2022-12-09T06:50:16.196Z,54.92
2022-12-09T06:52:17.918Z,55.00
2022-12-09T06:54:19.526Z,54.79
2022-12-09T06:56:21.591Z,54.65
2022-12-09T06:58:24.499Z,54.65
2022-12-09T07:00:26.715Z,54.98
2022-12-09T07:02:34.095Z,54.92
2022-12-09T07:04:37.616Z,55.28
2022-12-09T07:06:41.139Z,54.97
2022-12-09T07:08:42.796Z,55.56
2022-12-09T07:10:45.114Z,55.40
2022-12-09T07:12:47.017Z,55.13
2022-12-09T07:14:50.322Z,55.48
2022-12-09T07:16:52.151Z,55.09
2022-12-09T07:18:54.598Z,54.89
2022-12-09T07:20:56.333Z,55.24
2022-12-09T07:22:58.082Z,55.23
2022-12-09T07:24:59.808Z,54.92
2022-12-09T07:27:07.517Z,54.90
2022-12-09T07:29:10.660Z,55.22
2022-12-09T07:31:20.136Z,54.79
2022-12-09T07:33:22.075Z,55.49
2022-12-09T07:35:24.183Z,55.32
2022-12-09T07:37:25.790Z,55.45
2022-12-09T07:39:27.485Z,55.41
2022-12-09T07:41:29.639Z,55.67
2022-12-09T07:43:33.021Z,55.71
2022-12-09T07:45:34.980Z,56.03
2022-12-09T07:47:38.479Z,56.09
2022-12-09T07:49:40.555Z,56.42
2022-12-09T07:51:42.765Z,56.58
2022-12-09T07:53:47.129Z,57.26
2022-12-09T07:55:49.536Z,57.63
2022-12-09T07:57:51.040Z,57.19
2022-12-09T07:59:52.854Z,57.24
2022-12-09T08:01:54.888Z,56.94
2022-12-09T08:03:58.224Z,57.21
2022-12-09T08:06:00.342Z,57.40
2022-12-09T08:08:02.318Z,57.57
2022-12-09T08:10:05.243Z,57.36
2022-12-09T08:12:07.082Z,57.67
2022-12-09T08:14:12.873Z,57.63
2022-12-09T08:16:17.494Z,57.49
2022-12-09T08:18:19.628Z,57.15
2022-12-09T08:20:28.824Z,57.18
2022-12-09T08:22:31.205Z,56.93
2022-12-09T08:24:33.371Z,56.78
2022-12-09T08:26:35.308Z,56.35
2022-12-09T08:28:37.463Z,56.77
2022-12-09T08:30:39.682Z,57.40
2022-12-09T08:32:41.706Z,56.86
2022-12-09T08:34:43.573Z,56.74
2022-12-09T08:36:46.592Z,56.22
2022-12-09T08:38:48.201Z,56.46
2022-12-09T08:40:50.010Z,56.33
2022-12-09T08:42:51.898Z,55.85
2022-12-09T08:45:00.189Z,56.42
2022-12-09T08:47:03.812Z,56.33
2022-12-09T08:49:06.419Z,56.50
2022-12-09T08:51:10.569Z,56.38
2022-12-09T08:53:13.870Z,55.68
2022-12-09T08:55:15.747Z,55.56
2022-12-09T08:57:21.660Z,55.46
2022-12-09T08:59:24.452Z,55.23
2022-12-09T09:01:29.205Z,55.16
2022-12-09T09:03:31.739Z,54.65
2022-12-09T09:05:34.286Z,54.63
2022-12-09T09:07:37.287Z,54.73
2022-12-09T09:09:40.605Z,54.86
2022-12-09T09:11:43.997Z,54.85
2022-12-09T09:13:48.006Z,54.66
2022-12-09T09:15:49.715Z,54.62
2022-12-09T09:17:53.205Z,54.91
2022-12-09T09:19:55.165Z,54.84
2022-12-09T09:21:57.092Z,54.79
2022-12-09T09:23:59.712Z,54.64
2022-12-09T09:26:03.353Z,54.66
2022-12-09T09:28:05.652Z,53.90
2022-12-09T09:30:09.176Z,54.15
2022-12-09T09:32:11.054Z,54.25
2022-12-09T09:34:13.420Z,53.81
2022-12-09T09:36:17.002Z,53.21
2022-12-09T09:38:18.830Z,53.82
2022-12-09T09:40:21.068Z,53.21
2022-12-09T09:42:30.905Z,53.54
2022-12-09T09:44:35.349Z,53.42
2022-12-09T09:46:39.887Z,53.10
2022-12-09T09:48:42.299Z,53.75
2022-12-09T09:50:51.821Z,53.80
2022-12-09T09:52:55.245Z,53.44
2022-12-09T09:54:57.842Z,53.54
2022-12-09T09:57:05.760Z,53.45
2022-12-09T09:59:19.586Z,53.56
2022-12-09T10:01:25.697Z,53.37
2022-12-09T10:03:41.076Z,53.28
2022-12-09T10:05:49.915Z,53.26
2022-12-09T10:07:54.683Z,53.29
2022-12-09T10:10:03.964Z,53.46
2022-12-09T10:12:15.980Z,53.64
2022-12-09T10:14:28.515Z,53.70
2022-12-09T10:16:35.778Z,53.73
2022-12-09T10:18:48.096Z,53.79
2022-12-09T10:20:50.314Z,53.32
2022-12-09T10:22:56.719Z,53.11
2022-12-09T10:25:05.557Z,53.54
2022-12-09T10:27:18.624Z,53.27
2022-12-09T10:29:28.502Z,53.34
2022-12-09T10:31:31.297Z,52.97
2022-12-09T10:33:37.229Z,52.93
2022-12-09T10:35:39.702Z,52.84
2022-12-09T10:37:41.747Z,53.02
2022-12-09T10:39:47.222Z,52.92
2022-12-09T10:41:53.356Z,53.02
2022-12-09T10:44:19.702Z,52.07
2022-12-09T10:46:23.431Z,52.59
2022-12-09T10:48:33.045Z,52.50
2022-12-09T10:50:37.200Z,52.56
2022-12-09T10:52:45.369Z,52.43
2022-12-09T10:54:48.304Z,51.87
2022-12-09T10:57:22.140Z,51.15
2022-12-09T10:59:25.793Z,52.24
2022-12-09T11:01:29.687Z,51.31
2022-12-09T11:03:34.381Z,51.16
2022-12-09T11:05:36.761Z,50.63
2022-12-09T11:07:38.632Z,50.64
2022-12-09T11:09:42.795Z,50.19
2022-12-09T11:11:46.567Z,50.62
2022-12-09T11:13:48.798Z,50.30
2022-12-09T11:15:52.828Z,50.44
2022-12-09T11:17:59.510Z,50.47
2022-12-09T11:20:19.524Z,49.94
2022-12-09T11:22:25.945Z,50.34
2022-12-09T11:24:27.761Z,50.61
2022-12-09T11:26:35.821Z,50.21
2022-12-09T11:28:40.133Z,50.47
2022-12-09T11:31:19.914Z,49.99
2022-12-09T11:33:25.380Z,50.58
2022-12-09T11:35:32.319Z,50.11
2022-12-09T11:37:38.612Z,50.13
2022-12-09T11:39:40.421Z,50.72
2022-12-09T11:41:47.239Z,50.26
2022-12-09T11:43:52.255Z,49.70
2022-12-09T11:45:53.806Z,49.91
2022-12-09T11:50:28.753Z,49.46
2022-12-09T11:52:30.961Z,49.63
2022-12-09T11:54:40.281Z,49.99
2022-12-09T11:56:42.906Z,48.91
2022-12-09T11:58:49.490Z,48.99
2022-12-09T12:00:58.196Z,48.97
2022-12-09T12:03:10.478Z,48.96
2022-12-09T12:05:21.827Z,48.50
2022-12-09T12:07:32.244Z,48.20
2022-12-09T12:09:38.133Z,47.68
2022-12-09T12:11:47.541Z,48.45
2022-12-09T12:13:50.720Z,48.39
2022-12-09T12:16:03.073Z,48.01
2022-12-09T12:18:10.885Z,48.41
2022-12-09T12:20:13.997Z,48.37
2022-12-09T12:22:35.621Z,47.28
2022-12-09T12:25:17.203Z,47.17
2022-12-09T12:27:35.575Z,48.10
2022-12-09T12:29:46.459Z,47.76
2022-12-09T12:32:14.885Z,46.62
2022-12-09T12:34:33.051Z,46.83
2022-12-09T12:36:47.898Z,46.34
2022-12-09T12:39:02.730Z,46.70
2022-12-09T12:41:14.052Z,47.17
2022-12-09T12:43:34.388Z,47.32
2022-12-09T12:45:53.186Z,47.60
2022-12-09T12:48:02.744Z,47.29
2022-12-09T12:50:39.646Z,48.37
2022-12-09T12:52:55.953Z,48.36
2022-12-09T12:55:14.406Z,48.87
2022-12-09T12:57:23.886Z,47.97
2022-12-09T12:59:35.333Z,48.43
2022-12-09T13:01:47.934Z,48.22
2022-12-09T13:04:00.596Z,47.75
2022-12-09T13:06:02.933Z,47.17
2022-12-09T13:08:09.409Z,47.02
2022-12-09T13:10:20.828Z,46.92
2022-12-09T13:12:26.390Z,46.88
2022-12-09T13:14:35.047Z,47.22
2022-12-09T13:16:41.044Z,47.12
2022-12-09T13:18:43.721Z,46.96
2022-12-09T13:20:48.830Z,46.80
2022-12-09T13:22:57.058Z,47.38
2022-12-09T13:25:12.637Z,47.88
2022-12-09T13:27:20.754Z,47.01
2022-12-09T13:29:34.368Z,47.90
2022-12-09T13:31:38.931Z,47.97
2022-12-09T13:33:49.712Z,47.60
2022-12-09T13:35:58.381Z,47.47
2022-12-09T13:38:00.750Z,46.88
2022-12-09T13:40:06.069Z,47.20
2022-12-09T13:42:33.389Z,47.71
2022-12-09T13:44:37.441Z,47.33
2022-12-09T13:46:39.597Z,47.22
2022-12-09T13:48:46.884Z,47.36
2022-12-09T13:50:55.997Z,47.32
2022-12-09T13:53:00.702Z,48.04
2022-12-09T13:55:02.244Z,47.57
2022-12-09T13:57:15.024Z,47.50
2022-12-09T13:59:43.421Z,47.71
2022-12-09T14:01:49.008Z,47.79
2022-12-09T14:03:57.309Z,47.83
2022-12-09T14:06:01.902Z,48.06
2022-12-09T14:08:07.144Z,47.94
2022-12-09T14:10:36.503Z,47.21
2022-12-09T14:13:03.994Z,47.15
2022-12-09T14:15:35.722Z,47.42
2022-12-09T14:18:00.132Z,47.63
2022-12-09T14:20:15.306Z,47.80
2022-12-09T14:22:34.180Z,47.43
2022-12-09T14:24:35.760Z,47.33
2022-12-09T14:26:43.602Z,47.58
2022-12-09T14:28:54.746Z,47.46
2022-12-09T14:31:02.029Z,47.84
2022-12-09T14:33:21.652Z,47.37
2022-12-09T14:35:31.223Z,47.50
2022-12-09T14:38:02.163Z,47.59
2022-12-09T14:40:38.798Z,48.03
2022-12-09T14:42:47.999Z,48.12
2022-12-09T14:44:55.943Z,48.22
2022-12-09T14:47:26.004Z,47.66
2022-12-09T14:49:29.760Z,48.11
2022-12-09T14:51:35.913Z,48.26
2022-12-09T14:53:38.180Z,48.23
2022-12-09T14:55:40.928Z,48.11
2022-12-09T14:57:46.917Z,47.98
2022-12-09T14:59:50.653Z,48.15
2022-12-09T15:01:55.353Z,48.60
2022-12-09T15:03:58.748Z,48.45
2022-12-09T15:06:02.373Z,48.48
2022-12-09T15:08:04.013Z,48.70
2022-12-09T15:10:17.170Z,48.77
2022-12-09T15:12:21.430Z,48.96
2022-12-09T15:14:24.481Z,49.07
2022-12-09T15:16:26.659Z,49.49
2022-12-09T15:18:28.297Z,48.92
2022-12-09T15:20:32.708Z,48.95
2022-12-09T15:22:34.339Z,49.13
2022-12-09T15:24:49.567Z,49.01
2022-12-09T15:26:57.443Z,48.86
2022-12-09T15:28:59.576Z,48.66
2022-12-09T15:31:04.237Z,48.65
2022-12-09T15:33:14.137Z,48.58
2022-12-09T15:35:17.434Z,49.13
2022-12-09T15:37:22.283Z,48.70
2022-12-09T15:39:27.929Z,48.90
2022-12-09T15:41:33.800Z,48.91
2022-12-09T15:43:37.113Z,49.08
2022-12-09T15:45:42.826Z,49.01
2022-12-09T15:47:51.236Z,49.18
2022-12-09T15:49:56.078Z,49.20
2022-12-09T15:52:00.825Z,49.46
2022-12-09T15:54:06.143Z,49.42
2022-12-09T15:56:11.813Z,49.40
2022-12-09T15:58:16.865Z,49.56
2022-12-09T16:00:19.339Z,49.70
2022-12-09T16:02:25.192Z,49.37
2022-12-09T16:04:30.980Z,49.33
2022-12-09T16:06:35.752Z,49.72
2022-12-09T16:08:40.224Z,49.47
2022-12-09T16:10:46.782Z,49.73
2022-12-09T16:13:05.721Z,50.17
2022-12-09T16:15:10.233Z,49.44
2022-12-09T16:17:20.784Z,48.88
2022-12-09T16:19:32.293Z,49.34
2022-12-09T16:21:36.135Z,49.25
2022-12-09T16:23:38.024Z,49.49
2022-12-09T16:25:44.596Z,49.49
2022-12-09T16:27:48.805Z,49.51
2022-12-09T16:29:53.147Z,49.35
2022-12-09T16:32:18.627Z,49.23
2022-12-09T16:34:20.573Z,49.96
2022-12-09T16:36:27.278Z,49.49
2022-12-09T16:38:30.061Z,49.24
2022-12-09T16:41:00.816Z,49.80
2022-12-09T16:43:19.217Z,49.61
2022-12-09T16:45:24.571Z,49.75
2022-12-09T16:47:26.197Z,49.90
2022-12-09T16:49:28.167Z,50.10
2022-12-09T16:51:31.493Z,50.39
2022-12-09T16:53:38.860Z,50.14
2022-12-09T16:55:49.320Z,49.77
2022-12-09T16:57:51.774Z,50.33
2022-12-09T16:59:53.668Z,50.59
2022-12-09T17:01:55.724Z,50.47
2022-12-09T17:04:00.873Z,50.71
2022-12-09T17:06:02.457Z,50.99
2022-12-09T17:08:05.571Z,50.82
2022-12-09T17:10:08.302Z,51.02
2022-12-09T17:12:09.934Z,50.65
2022-12-09T17:14:11.579Z,51.25
2022-12-09T17:16:13.407Z,50.97
2022-12-09T17:18:15.112Z,51.14
2022-12-09T17:20:16.913Z,50.93
2022-12-09T17:22:18.780Z,50.74
2022-12-09T17:24:21.789Z,50.60
2022-12-09T17:26:23.623Z,50.62
2022-12-09T17:28:29.871Z,50.34
2022-12-09T17:30:37.081Z,50.49
2022-12-09T17:32:38.770Z,50.87
2022-12-09T17:34:40.530Z,50.46
2022-12-09T17:36:42.380Z,50.26
2022-12-09T17:38:44.843Z,50.98
2022-12-09T17:40:47.916Z,50.85
2022-12-09T17:42:49.709Z,50.77
2022-12-09T17:44:51.274Z,50.86
2022-12-09T17:46:52.913Z,50.42
2022-12-09T17:48:54.592Z,50.55
2022-12-09T17:50:56.509Z,50.95
2022-12-09T17:52:58.083Z,51.21
2022-12-09T17:54:59.570Z,51.17
2022-12-09T17:57:02.421Z,51.08
2022-12-09T17:59:06.451Z,50.94
2022-12-09T18:01:13.323Z,50.78
2022-12-09T18:03:27.421Z,50.96
2022-12-09T18:05:36.997Z,51.10
2022-12-09T18:07:38.502Z,51.11
2022-12-09T18:09:40.023Z,51.19
2022-12-09T18:11:41.664Z,51.29
2022-12-09T18:13:44.615Z,51.27
2022-12-09T18:15:49.773Z,51.23
2022-12-09T18:17:55.592Z,51.12
2022-12-09T18:19:57.213Z,51.34
2022-12-09T18:21:58.734Z,51.24
2022-12-09T18:24:00.302Z,51.37
2022-12-09T18:26:05.814Z,51.53
2022-12-09T18:28:08.055Z,51.75
2022-12-09T18:30:12.048Z,51.94
2022-12-09T18:32:13.560Z,52.46
2022-12-09T18:34:15.312Z,52.32
2022-12-09T18:36:18.852Z,52.44
2022-12-09T18:38:20.419Z,52.34
2022-12-09T18:40:21.946Z,51.86
2022-12-09T18:42:23.445Z,52.21
2022-12-09T18:44:24.960Z,51.84
2022-12-09T18:46:31.135Z,51.64
2022-12-09T18:48:33.063Z,51.71
2022-12-09T18:50:36.606Z,51.72
2022-12-09T18:52:38.154Z,51.80
2022-12-09T18:54:39.746Z,51.59
2022-12-09T18:56:41.226Z,51.57
2022-12-09T18:59:05.424Z,51.64
2022-12-09T19:01:14.177Z,51.87
2022-12-09T19:03:17.116Z,51.52
2022-12-09T19:05:18.619Z,51.79
2022-12-09T19:07:20.138Z,51.60
2022-12-09T19:09:24.016Z,51.76
2022-12-09T19:11:27.845Z,51.61
2022-12-09T19:13:30.196Z,51.57
2022-12-09T19:15:31.758Z,51.41
2022-12-09T19:17:33.350Z,51.29
2022-12-09T19:19:36.314Z,51.38
2022-12-09T19:21:38.331Z,51.48
2022-12-09T19:23:41.528Z,51.31
2022-12-09T19:25:43.195Z,51.80
2022-12-09T19:27:44.720Z,51.70
2022-12-09T19:29:46.212Z,51.73
2022-12-09T19:31:52.969Z,51.35
2022-12-09T19:33:57.378Z,51.62
2022-12-09T19:36:04.138Z,51.51
2022-12-09T19:38:05.651Z,51.69
2022-12-09T19:40:08.678Z,51.54
2022-12-09T19:42:10.307Z,51.37
2022-12-09T19:44:21.518Z,51.38
2022-12-09T19:46:33.736Z,50.97
2022-12-09T19:48:36.422Z,50.78
2022-12-09T19:50:38.046Z,51.11
2022-12-09T19:52:41.053Z,50.98
2022-12-09T19:54:42.508Z,51.22
2022-12-09T19:56:45.118Z,51.35
2022-12-09T19:58:47.309Z,51.40
2022-12-09T20:00:48.794Z,51.28
2022-12-09T20:02:50.418Z,51.28
2022-12-09T20:04:52.003Z,51.18
2022-12-09T20:06:53.598Z,50.98
2022-12-09T20:08:56.600Z,51.09
2022-12-09T20:10:58.094Z,51.03
2022-12-09T20:12:59.625Z,51.09
2022-12-09T20:15:01.165Z,50.89
2022-12-09T20:17:02.745Z,50.87
2022-12-09T20:19:04.291Z,50.93
2022-12-09T20:21:07.668Z,51.14
2022-12-09T20:23:09.508Z,51.08
2022-12-09T20:25:12.469Z,51.11
2022-12-09T20:27:14.069Z,51.10
2022-12-09T20:29:15.586Z,51.10
2022-12-09T20:31:19.322Z,51.01
2022-12-09T20:33:20.883Z,51.04
2022-12-09T20:35:23.535Z,50.98
2022-12-09T20:37:25.176Z,51.19
2022-12-09T20:39:26.773Z,51.46
2022-12-09T20:41:30.259Z,51.32
2022-12-09T20:43:32.329Z,51.46
2022-12-09T20:45:34.051Z,51.32
2022-12-09T20:47:35.776Z,51.21
2022-12-09T20:49:37.267Z,51.29
2022-12-09T20:51:40.613Z,51.31
2022-12-09T20:53:43.811Z,51.38
2022-12-09T20:55:54.953Z,51.04
2022-12-09T20:57:57.880Z,51.30
2022-12-09T20:59:59.473Z,51.19
2022-12-09T21:02:01.028Z,50.93
2022-12-09T21:04:04.547Z,50.95
2022-12-09T21:06:07.162Z,51.03
2022-12-09T21:08:08.856Z,51.23
2022-12-09T21:10:10.641Z,51.02
2022-12-09T21:12:12.286Z,51.04
2022-12-09T21:14:16.420Z,51.11
2022-12-09T21:16:20.586Z,50.98
2022-12-09T21:18:22.106Z,51.17
2022-12-09T21:20:23.681Z,51.64
2022-12-09T21:22:25.240Z,51.46
2022-12-09T21:24:26.784Z,51.56
2022-12-09T21:26:28.738Z,51.27
2022-12-09T21:28:30.283Z,51.27
2022-12-09T21:30:33.167Z,51.55
2022-12-09T21:32:34.993Z,51.33
2022-12-09T21:34:36.506Z,51.24
2022-12-09T21:36:40.424Z,50.96
2022-12-09T21:38:42.779Z,51.27
2022-12-09T21:40:44.314Z,51.16
2022-12-09T21:42:45.776Z,51.25
2022-12-09T21:44:47.315Z,51.27
2022-12-09T21:46:50.294Z,51.15
2022-12-09T21:48:56.041Z,51.28
2022-12-09T21:51:02.624Z,50.90
2022-12-09T21:53:04.124Z,51.05
2022-12-09T21:55:06.280Z,51.21
2022-12-09T21:57:07.819Z,51.27
2022-12-09T21:59:10.745Z,51.16
2022-12-09T22:01:14.293Z,51.25
2022-12-09T22:03:17.310Z,51.43
2022-12-09T22:05:19.016Z,51.53
2022-12-09T22:07:20.682Z,51.73
2022-12-09T22:09:22.358Z,51.48
2022-12-09T22:11:25.899Z,51.69
2022-12-09T22:13:27.850Z,51.71
2022-12-09T22:15:29.480Z,51.48
2022-12-09T22:17:32.104Z,51.24
2022-12-09T22:19:35.111Z,51.35
2022-12-09T22:21:37.347Z,51.33
2022-12-09T22:23:38.993Z,51.30
2022-12-09T22:25:40.497Z,51.67
2022-12-09T22:27:42.024Z,51.66
2022-12-09T22:29:43.554Z,51.50
2022-12-09T22:31:46.313Z,51.44
2022-12-09T22:33:48.882Z,51.46
2022-12-09T22:35:51.763Z,51.67
2022-12-09T22:37:53.233Z,51.58
2022-12-09T22:39:54.832Z,51.65
2022-12-09T22:41:56.437Z,51.65
2022-12-09T22:43:57.957Z,51.55
2022-12-09T22:46:02.975Z,51.76
2022-12-09T22:48:04.823Z,51.58
2022-12-09T22:50:08.127Z,51.96
2022-12-09T22:52:11.106Z,51.47
2022-12-09T22:54:13.422Z,51.74
2022-12-09T22:56:15.237Z,51.51
2022-12-09T22:58:16.726Z,51.70
2022-12-09T23:00:18.404Z,51.89
2022-12-09T23:02:20.075Z,51.83
2022-12-09T23:04:21.892Z,51.64
2022-12-09T23:06:24.780Z,51.77
2022-12-09T23:08:27.646Z,51.83
2022-12-09T23:10:29.237Z,51.65
2022-12-09T23:12:30.743Z,51.56
2022-12-09T23:14:32.251Z,51.65
2022-12-09T23:16:33.745Z,51.64
2022-12-09T23:18:35.973Z,51.68
2022-12-09T23:20:37.514Z,51.80
2022-12-09T23:22:39.031Z,52.02
2022-12-09T23:24:41.888Z,51.88
2022-12-09T23:26:43.795Z,51.89
2022-12-09T23:28:47.641Z,52.28
2022-12-09T23:30:49.171Z,51.96
2022-12-09T23:32:50.690Z,52.01
2022-12-09T23:34:52.176Z,51.88
2022-12-09T23:36:53.671Z,52.15
2022-12-09T23:38:55.172Z,52.05
2022-12-09T23:40:58.020Z,52.37
2022-12-09T23:42:59.598Z,52.15
2022-12-09T23:45:01.127Z,52.17
2022-12-09T23:47:04.473Z,52.22
2022-12-09T23:49:06.612Z,52.30
2022-12-09T23:51:12.159Z,52.16
2022-12-09T23:53:13.723Z,52.17
2022-12-09T23:55:15.221Z,51.75
2022-12-09T23:57:18.164Z,51.87
2022-12-09T23:59:21.507Z,51.85
